createdAt,value
2022-09-02T00:01:16.643Z,19.00
2022-09-02T00:03:45.776Z,18.91
2022-09-02T00:06:13.856Z,18.91
2022-09-02T00:08:41.472Z,18.89
2022-09-02T00:11:11.488Z,18.85
2022-09-02T00:13:39.076Z,18.80
2022-09-02T00:16:07.442Z,18.80
2022-09-02T00:18:36.107Z,18.77
2022-09-02T00:21:05.233Z,18.76
2022-09-02T00:23:33.439Z,18.69
2022-09-02T00:26:01.219Z,18.68
2022-09-02T00:28:28.703Z,18.64
2022-09-02T00:30:58.122Z,18.59
2022-09-02T00:33:25.668Z,18.48
2022-09-02T00:35:53.360Z,18.57
2022-09-02T00:38:22.232Z,18.57
2022-09-02T00:40:51.619Z,18.59
2022-09-02T00:43:27.355Z,18.44
2022-09-02T00:45:55.751Z,18.49
2022-09-02T00:48:23.313Z,18.47
2022-09-02T00:50:50.927Z,18.46
2022-09-02T00:53:19.110Z,18.47
2022-09-02T00:55:50.486Z,18.44
2022-09-02T00:58:22.079Z,18.41
2022-09-02T01:00:52.454Z,18.39
2022-09-02T01:03:22.462Z,18.41
2022-09-02T01:05:52.129Z,18.30
2022-09-02T01:08:21.650Z,18.31
2022-09-02T01:10:50.604Z,18.34
2022-09-02T01:13:21.318Z,18.35
2022-09-02T01:15:51.464Z,18.27
2022-09-02T01:18:21.968Z,18.25
2022-09-02T01:20:49.676Z,18.24
2022-09-02T01:23:19.933Z,18.29
2022-09-02T01:25:48.292Z,18.24
2022-09-02T01:28:18.380Z,18.24
2022-09-02T01:30:48.404Z,18.30
2022-09-02T01:33:16.102Z,18.29
2022-09-02T01:35:44.254Z,18.29
2022-09-02T01:38:12.139Z,18.32
2022-09-02T01:40:41.630Z,18.29
2022-09-02T01:43:11.136Z,18.23
2022-09-02T01:45:40.701Z,18.17
2022-09-02T01:48:09.698Z,18.20
2022-09-02T01:50:39.076Z,18.14
2022-09-02T01:53:08.994Z,18.12
2022-09-02T01:55:36.537Z,18.15
2022-09-02T01:58:05.459Z,18.12
2022-09-02T02:00:32.998Z,18.13
2022-09-02T02:03:00.534Z,18.08
2022-09-02T02:05:28.911Z,18.02
2022-09-02T02:07:56.425Z,17.96
2022-09-02T02:10:24.674Z,17.96
2022-09-02T02:12:52.614Z,18.07
2022-09-02T02:15:22.117Z,18.03
2022-09-02T02:17:49.677Z,17.97
2022-09-02T02:20:18.938Z,18.01
2022-09-02T02:22:46.499Z,17.98
2022-09-02T02:25:15.218Z,17.98
2022-09-02T02:27:43.727Z,17.95
2022-09-02T02:30:13.451Z,17.90
2022-09-02T02:32:43.114Z,17.95
2022-09-02T02:35:11.462Z,17.93
2022-09-02T02:37:39.039Z,17.97
2022-09-02T02:40:08.787Z,17.91
2022-09-02T02:42:36.575Z,17.91
2022-09-02T02:45:09.447Z,17.84
2022-09-02T02:47:46.112Z,17.88
2022-09-02T02:50:15.526Z,17.93
2022-09-02T02:52:43.493Z,17.85
2022-09-02T02:55:13.163Z,17.86
2022-09-02T02:57:42.710Z,17.84
2022-09-02T03:00:12.645Z,17.81
2022-09-02T03:02:40.506Z,17.82
2022-09-02T03:05:11.716Z,17.76
2022-09-02T03:07:39.282Z,17.68
2022-09-02T03:10:09.125Z,17.63
2022-09-02T03:12:37.185Z,17.67
2022-09-02T03:15:06.005Z,17.64
2022-09-02T03:17:33.950Z,17.67
2022-09-02T03:20:01.726Z,17.67
2022-09-02T03:22:30.564Z,17.64
2022-09-02T03:24:58.228Z,17.70
2022-09-02T03:27:25.929Z,17.72
2022-09-02T03:29:53.445Z,17.76
2022-09-02T03:32:20.947Z,17.77
2022-09-02T03:34:48.456Z,17.76
2022-09-02T03:37:16.692Z,17.81
2022-09-02T03:39:45.523Z,17.75
2022-09-02T03:42:19.755Z,17.67
2022-09-02T03:44:47.709Z,17.59
2022-09-02T03:47:17.595Z,17.60
2022-09-02T03:49:48.511Z,17.69
2022-09-02T03:52:16.130Z,17.61
2022-09-02T03:54:44.940Z,17.75
2022-09-02T03:57:12.460Z,17.69
2022-09-02T03:59:40.122Z,17.74
2022-09-02T04:02:07.910Z,17.65
2022-09-02T04:04:35.897Z,17.61
2022-09-02T04:07:03.815Z,17.56
2022-09-02T04:09:31.393Z,17.62
2022-09-02T04:12:00.205Z,17.57
2022-09-02T04:14:27.776Z,17.48
2022-09-02T04:16:55.251Z,17.52
2022-09-02T04:19:22.736Z,17.50
2022-09-02T04:21:50.194Z,17.41
2022-09-02T04:24:17.820Z,17.34
2022-09-02T04:26:45.525Z,17.27
2022-09-02T04:29:14.613Z,17.38
2022-09-02T04:31:42.610Z,17.33
2022-09-02T04:34:10.135Z,17.40
2022-09-02T04:36:37.630Z,17.34
2022-09-02T04:39:06.031Z,17.33
2022-09-02T04:41:35.591Z,17.29
2022-09-02T04:44:04.069Z,17.39
2022-09-02T04:46:34.771Z,17.45
2022-09-02T04:49:03.074Z,17.39
2022-09-02T04:51:31.249Z,17.39
2022-09-02T04:53:58.694Z,17.40
2022-09-02T04:56:28.164Z,17.38
2022-09-02T04:58:55.920Z,17.36
2022-09-02T05:01:25.236Z,17.35
2022-09-02T05:03:54.956Z,17.36
2022-09-02T05:06:24.438Z,17.31
2022-09-02T05:08:51.904Z,17.31
2022-09-02T05:11:21.977Z,17.28
2022-09-02T05:13:51.464Z,17.24
2022-09-02T05:16:20.630Z,17.30
2022-09-02T05:18:48.895Z,17.23
2022-09-02T05:21:17.942Z,17.34
2022-09-02T05:23:45.452Z,17.35
2022-09-02T05:26:14.126Z,17.49
2022-09-02T05:28:42.909Z,17.44
2022-09-02T05:31:12.879Z,17.45
2022-09-02T05:33:42.030Z,17.36
2022-09-02T05:36:12.493Z,17.36
2022-09-02T05:38:41.490Z,17.40
2022-09-02T05:41:09.699Z,17.47
2022-09-02T05:43:37.998Z,17.41
2022-09-02T05:46:08.141Z,17.33
2022-09-02T05:48:53.903Z,17.38
2022-09-02T05:51:21.709Z,17.40
2022-09-02T05:53:53.165Z,17.43
2022-09-02T05:56:20.718Z,17.46
2022-09-02T05:58:48.192Z,17.41
2022-09-02T06:01:17.265Z,17.43
2022-09-02T06:03:44.830Z,17.46
2022-09-02T06:06:12.524Z,17.49
2022-09-02T06:08:40.431Z,17.46
2022-09-02T06:11:11.413Z,17.53
2022-09-02T06:13:41.723Z,17.69
2022-09-02T06:16:10.576Z,17.71
2022-09-02T06:18:38.143Z,17.74
2022-09-02T06:21:06.669Z,17.84
2022-09-02T06:23:35.665Z,17.87
2022-09-02T06:26:03.325Z,17.95
2022-09-02T06:28:33.517Z,18.03
2022-09-02T06:31:01.095Z,18.06
2022-09-02T06:33:28.601Z,18.12
2022-09-02T06:35:56.117Z,18.08
2022-09-02T06:38:23.613Z,18.12
2022-09-02T06:40:52.897Z,18.26
2022-09-02T06:43:20.576Z,18.32
2022-09-02T06:45:49.499Z,18.33
2022-09-02T06:48:17.033Z,18.47
2022-09-02T06:50:46.707Z,18.61
2022-09-02T06:53:14.820Z,18.64
2022-09-02T06:55:47.048Z,18.65
2022-09-02T06:58:15.058Z,18.66
2022-09-02T07:00:42.894Z,18.74
2022-09-02T07:03:30.123Z,18.70
2022-09-02T07:06:02.338Z,18.80
2022-09-02T07:08:29.939Z,18.77
2022-09-02T07:10:57.427Z,18.88
2022-09-02T07:13:24.997Z,18.98
2022-09-02T07:15:52.499Z,19.09
2022-09-02T07:18:21.340Z,19.18
2022-09-02T07:20:48.894Z,19.11
2022-09-02T07:23:17.074Z,19.12
2022-09-02T07:25:44.993Z,19.09
2022-09-02T07:28:13.161Z,19.13
2022-09-02T07:30:42.967Z,19.19
2022-09-02T07:33:13.909Z,19.13
2022-09-02T07:35:43.568Z,19.14
2022-09-02T07:38:11.703Z,19.18
2022-09-02T07:40:40.437Z,19.27
2022-09-02T07:43:10.748Z,19.29
2022-09-02T07:45:39.271Z,19.32
2022-09-02T07:48:07.566Z,19.37
2022-09-02T07:50:37.122Z,19.44
2022-09-02T07:53:06.403Z,19.47
2022-09-02T07:55:35.013Z,19.49
2022-09-02T07:58:02.982Z,19.55
2022-09-02T08:00:30.941Z,19.59
2022-09-02T08:02:58.560Z,19.62
2022-09-02T08:05:26.141Z,19.73
2022-09-02T08:07:53.975Z,19.79
2022-09-02T08:10:25.821Z,19.92
2022-09-02T08:12:53.375Z,19.94
2022-09-02T08:15:21.055Z,20.04
2022-09-02T08:17:49.000Z,19.99
2022-09-02T08:20:18.121Z,20.13
2022-09-02T08:22:50.775Z,19.97
2022-09-02T08:25:28.109Z,20.21
2022-09-02T08:30:28.180Z,20.20
2022-09-02T08:32:56.122Z,20.23
2022-09-02T08:35:23.805Z,20.38
2022-09-02T08:37:51.898Z,20.44
2022-09-02T08:40:21.514Z,20.55
2022-09-02T08:42:52.937Z,20.72
2022-09-02T08:45:25.427Z,20.74
2022-09-02T08:48:00.453Z,20.69
2022-09-02T08:50:28.333Z,20.80
2022-09-02T08:53:02.966Z,20.95
2022-09-02T08:55:38.083Z,20.91
2022-09-02T09:00:41.859Z,21.02
2022-09-02T09:03:18.623Z,21.14
2022-09-02T09:05:52.062Z,21.23
2022-09-02T09:08:25.114Z,21.33
2022-09-02T09:11:00.160Z,21.36
2022-09-02T09:13:48.135Z,21.38
2022-09-02T09:16:22.175Z,21.46
2022-09-02T09:18:55.027Z,21.46
2022-09-02T09:23:57.441Z,21.51
2022-09-02T09:26:29.055Z,21.71
2022-09-02T09:28:59.669Z,21.78
2022-09-02T09:31:31.263Z,21.84
2022-09-02T09:33:59.903Z,21.71
2022-09-02T09:36:51.194Z,21.91
2022-09-02T09:39:20.979Z,21.88
2022-09-02T09:41:49.831Z,21.93
2022-09-02T09:44:42.068Z,22.12
2022-09-02T09:47:16.016Z,22.19
2022-09-02T09:49:45.344Z,22.24
2022-09-02T09:52:12.920Z,22.36
2022-09-02T09:54:40.417Z,22.41
2022-09-02T09:57:17.525Z,22.40
2022-09-02T09:59:55.901Z,22.46
2022-09-02T10:02:25.413Z,22.53
2022-09-02T10:04:53.983Z,22.50
2022-09-02T10:07:39.711Z,22.58
2022-09-02T10:10:17.285Z,22.72
2022-09-02T10:12:45.511Z,23.00
2022-09-02T10:15:14.618Z,23.15
2022-09-02T10:17:49.321Z,23.06
2022-09-02T10:20:20.072Z,23.06
2022-09-02T10:23:15.931Z,23.06
2022-09-02T10:25:54.711Z,23.18
2022-09-02T10:28:41.142Z,23.31
2022-09-02T10:31:14.791Z,23.41
2022-09-02T10:33:50.522Z,23.56
2022-09-02T10:36:25.458Z,23.76
2022-09-02T10:38:53.029Z,23.93
2022-09-02T10:41:31.850Z,24.05
2022-09-02T10:44:06.432Z,24.10
2022-09-02T10:46:41.095Z,24.07
2022-09-02T10:49:16.137Z,23.97
2022-09-02T10:51:48.262Z,24.09
2022-09-02T10:54:25.604Z,24.17
2022-09-02T10:56:58.313Z,24.23
2022-09-02T10:59:28.297Z,24.23
2022-09-02T11:02:00.589Z,24.28
2022-09-02T11:04:37.092Z,24.11
2022-09-02T11:07:06.072Z,24.12
2022-09-02T11:09:36.923Z,24.07
2022-09-02T11:12:09.383Z,24.06
2022-09-02T11:14:39.012Z,24.15
2022-09-02T11:17:12.973Z,24.06
2022-09-02T11:19:43.324Z,23.81
2022-09-02T11:22:18.115Z,23.72
2022-09-02T11:24:49.252Z,23.55
2022-09-02T11:27:41.652Z,23.64
2022-09-02T11:30:13.820Z,23.65
2022-09-02T11:32:47.650Z,23.47
2022-09-02T11:35:18.345Z,23.53
2022-09-02T11:37:48.332Z,23.42
2022-09-02T11:40:36.338Z,23.46
2022-09-02T11:43:10.163Z,23.34
2022-09-02T11:46:00.912Z,23.43
2022-09-02T11:48:54.414Z,23.38
2022-09-02T11:51:34.506Z,23.49
2022-09-02T11:54:04.693Z,23.48
2022-09-02T11:56:37.921Z,23.34
2022-09-02T11:59:07.030Z,23.46
2022-09-02T12:01:37.257Z,23.45
2022-09-02T12:04:59.225Z,23.24
2022-09-02T12:07:29.917Z,23.38
2022-09-02T12:10:02.646Z,23.37
2022-09-02T12:13:03.784Z,23.40
2022-09-02T12:15:36.172Z,23.29
2022-09-02T12:18:29.960Z,23.31
2022-09-02T12:21:08.528Z,23.25
2022-09-02T12:24:21.749Z,23.55
2022-09-02T12:27:12.838Z,23.62
2022-09-02T12:29:40.336Z,23.58
2022-09-02T12:32:09.716Z,23.56
2022-09-02T12:34:53.854Z,23.54
2022-09-02T12:37:57.145Z,23.69
2022-09-02T12:40:34.990Z,23.80
2022-09-02T12:43:06.392Z,23.94
2022-09-02T12:45:35.215Z,24.11
2022-09-02T12:48:08.031Z,24.00
2022-09-02T12:50:55.119Z,23.90
2022-09-02T12:53:41.225Z,23.91
2022-09-02T12:56:21.254Z,23.82
2022-09-02T12:58:51.679Z,24.00
2022-09-02T13:01:21.774Z,24.10
2022-09-02T13:04:21.207Z,24.14
2022-09-02T13:07:06.337Z,24.14
2022-09-02T13:10:04.593Z,24.16
2022-09-02T13:12:53.335Z,24.31
2022-09-02T13:15:27.830Z,24.33
2022-09-02T13:18:20.707Z,24.39
2022-09-02T13:21:00.850Z,24.46
2022-09-02T13:24:00.330Z,24.49
2022-09-02T13:26:50.368Z,24.55
2022-09-02T13:29:54.218Z,24.53
2022-09-02T13:32:24.335Z,24.47
2022-09-02T13:34:55.039Z,24.46
2022-09-02T13:37:36.522Z,24.43
2022-09-02T13:40:07.721Z,24.44
2022-09-02T13:42:37.319Z,24.47
2022-09-02T13:45:15.158Z,24.69
2022-09-02T13:47:44.115Z,24.67
2022-09-02T13:50:12.657Z,24.60
2022-09-02T13:57:20.746Z,24.85
2022-09-02T14:00:17.975Z,24.79
2022-09-02T14:03:37.293Z,24.71
2022-09-02T14:06:56.484Z,24.74
2022-09-02T14:09:56.407Z,24.78
2022-09-02T14:13:15.532Z,24.75
2022-09-02T14:16:16.365Z,24.78
2022-09-02T14:22:32.646Z,24.89
2022-09-02T14:25:27.138Z,24.84
2022-09-02T14:28:44.211Z,24.85
2022-09-02T14:31:47.671Z,24.95
2022-09-02T14:35:14.285Z,24.96
2022-09-02T14:38:50.817Z,24.94
2022-09-02T14:42:13.188Z,24.89
2022-09-02T14:48:29.978Z,24.80
2022-09-02T14:54:32.984Z,24.75
2022-09-02T14:57:32.919Z,24.91
2022-09-02T15:07:03.687Z,24.76
2022-09-02T15:09:31.420Z,24.88
2022-09-02T15:12:02.669Z,24.91
2022-09-02T15:14:30.892Z,25.07
2022-09-02T15:16:59.758Z,25.11
2022-09-02T15:19:29.047Z,25.09
2022-09-02T15:21:56.627Z,24.89
2022-09-02T15:24:24.401Z,24.91
2022-09-02T15:26:52.348Z,25.00
2022-09-02T15:29:19.892Z,25.03
2022-09-02T15:31:47.482Z,24.96
2022-09-02T15:34:14.982Z,24.99
2022-09-02T15:36:43.844Z,24.98
2022-09-02T15:39:11.666Z,24.83
2022-09-02T15:41:39.210Z,25.00
2022-09-02T15:44:07.495Z,24.96
2022-09-02T15:46:37.052Z,24.79
2022-09-02T15:49:07.165Z,24.76
2022-09-02T15:51:35.442Z,24.82
2022-09-02T15:54:06.136Z,24.77
2022-09-02T15:56:35.178Z,24.84
2022-09-02T15:59:04.601Z,24.80
2022-09-02T16:01:34.373Z,24.74
2022-09-02T16:04:03.142Z,24.74
2022-09-02T16:06:31.781Z,24.95
2022-09-02T16:08:59.488Z,25.01
2022-09-02T16:11:28.405Z,24.93
2022-09-02T16:13:55.929Z,24.91
2022-09-02T16:16:23.592Z,25.02
2022-09-02T16:18:52.692Z,24.90
2022-09-02T16:21:21.307Z,24.75
2022-09-02T16:23:49.236Z,24.80
2022-09-02T16:26:23.528Z,24.60
2022-09-02T16:28:53.503Z,24.64
2022-09-02T16:31:21.864Z,24.68
2022-09-02T16:33:53.500Z,24.68
2022-09-02T16:36:21.357Z,24.66
2022-09-02T16:38:48.841Z,24.59
2022-09-02T16:41:24.240Z,24.66
2022-09-02T16:44:39.798Z,24.54
2022-09-02T16:47:33.801Z,24.24
2022-09-02T16:53:42.988Z,24.29
2022-09-02T16:56:55.616Z,24.19
2022-09-02T16:59:41.671Z,24.04
2022-09-02T17:06:23.176Z,23.95
2022-09-02T17:09:01.687Z,23.87
2022-09-02T17:11:54.170Z,23.64
2022-09-02T17:15:11.922Z,23.81
2022-09-02T17:18:57.266Z,23.68
2022-09-02T17:22:00.157Z,23.80
2022-09-02T17:24:53.520Z,23.79
2022-09-02T17:28:12.990Z,23.53
2022-09-02T17:30:48.656Z,23.25
2022-09-02T17:33:30.105Z,23.10
2022-09-02T17:36:37.535Z,23.15
2022-09-02T17:39:08.657Z,23.00
2022-09-02T17:41:54.368Z,23.01
2022-09-02T17:44:23.298Z,22.96
2022-09-02T17:46:51.077Z,22.93
2022-09-02T17:49:20.349Z,22.84
2022-09-02T17:51:48.467Z,22.80
2022-09-02T17:54:18.176Z,22.73
2022-09-02T17:57:04.935Z,22.68
2022-09-02T17:59:42.882Z,22.64
2022-09-02T18:02:41.634Z,22.48
2022-09-02T18:05:17.742Z,22.33
2022-09-02T18:07:53.305Z,22.28
2022-09-02T18:10:22.471Z,22.34
2022-09-02T18:12:50.512Z,22.26
2022-09-02T18:15:19.511Z,22.19
2022-09-02T18:17:49.262Z,22.15
2022-09-02T18:20:22.171Z,22.09
2022-09-02T18:23:09.009Z,22.13
2022-09-02T18:25:48.585Z,22.16
2022-09-02T18:28:29.673Z,22.13
2022-09-02T18:31:05.391Z,22.06
2022-09-02T18:33:50.143Z,22.02
2022-09-02T18:36:30.164Z,22.06
2022-09-02T18:39:08.787Z,21.89
2022-09-02T18:41:53.858Z,21.84
2022-09-02T18:44:32.085Z,21.80
2022-09-02T18:47:01.869Z,21.70
2022-09-02T18:49:32.714Z,21.58
2022-09-02T18:52:02.266Z,21.49
2022-09-02T18:54:32.176Z,21.40
2022-09-02T18:57:06.158Z,21.52
2022-09-02T18:59:37.994Z,21.49
2022-09-02T19:02:12.828Z,21.49
2022-09-02T19:04:40.676Z,21.58
2022-09-02T19:07:27.786Z,21.54
2022-09-02T19:09:56.088Z,21.52
2022-09-02T19:12:32.814Z,21.40
2022-09-02T19:15:01.511Z,21.37
2022-09-02T19:17:30.215Z,21.37
2022-09-02T19:19:58.067Z,21.34
2022-09-02T19:22:28.341Z,21.32
2022-09-02T19:25:01.351Z,21.30
2022-09-02T19:27:32.991Z,21.36
2022-09-02T19:30:07.175Z,21.30
2022-09-02T19:32:37.387Z,21.21
2022-09-02T19:35:08.713Z,21.16
2022-09-02T19:37:44.232Z,21.16
2022-09-02T19:40:14.933Z,21.17
2022-09-02T19:42:43.934Z,21.05
2022-09-02T19:45:15.980Z,21.08
2022-09-02T19:48:05.984Z,21.05
2022-09-02T19:50:32.855Z,21.02
2022-09-02T19:53:00.521Z,20.99
2022-09-02T19:55:28.198Z,20.88
2022-09-02T19:57:57.174Z,20.99
2022-09-02T20:00:24.868Z,20.93
2022-09-02T20:02:52.542Z,20.89
2022-09-02T20:05:21.560Z,20.89
2022-09-02T20:07:49.275Z,20.78
2022-09-02T20:10:17.056Z,20.78
2022-09-02T20:12:48.380Z,20.86
2022-09-02T20:15:17.544Z,20.88
2022-09-02T20:17:45.146Z,20.86
2022-09-02T20:20:16.991Z,20.72
2022-09-02T20:22:45.795Z,20.65
2022-09-02T20:25:13.724Z,20.67
2022-09-02T20:27:51.562Z,20.60
2022-09-02T20:30:23.422Z,20.61
2022-09-02T20:32:57.968Z,20.62
2022-09-02T20:35:46.750Z,20.56
2022-09-02T20:38:32.069Z,20.50
2022-09-02T20:41:06.330Z,20.53
2022-09-02T20:43:54.894Z,20.53
2022-09-02T20:46:38.889Z,20.54
2022-09-02T20:49:20.369Z,20.40
2022-09-02T20:51:52.621Z,20.45
2022-09-02T20:54:33.510Z,20.49
2022-09-02T20:57:14.479Z,20.48
2022-09-02T20:59:53.509Z,20.38
2022-09-02T21:02:26.856Z,20.50
2022-09-02T21:04:57.290Z,20.41
2022-09-02T21:07:28.395Z,20.42
2022-09-02T21:10:06.602Z,20.45
2022-09-02T21:12:43.485Z,20.46
2022-09-02T21:15:19.464Z,20.42
2022-09-02T21:17:52.175Z,20.40
2022-09-02T21:20:59.217Z,20.38
2022-09-02T21:24:08.263Z,20.38
2022-09-02T21:26:56.743Z,20.32
2022-09-02T21:29:36.746Z,20.26
2022-09-02T21:32:15.211Z,20.39
2022-09-02T21:34:53.454Z,20.37
2022-09-02T21:37:22.275Z,20.28
2022-09-02T21:39:55.125Z,20.27
2022-09-02T21:42:28.373Z,20.38
2022-09-02T21:45:06.026Z,20.47
2022-09-02T21:47:42.519Z,20.40
2022-09-02T21:50:21.868Z,20.29
2022-09-02T21:53:00.765Z,20.22
2022-09-02T21:55:48.202Z,20.11
2022-09-02T21:58:36.234Z,20.09
2022-09-02T22:01:09.167Z,20.00
2022-09-02T22:03:44.654Z,19.95
2022-09-02T22:06:27.825Z,19.93
2022-09-02T22:08:59.550Z,19.85
2022-09-02T22:11:33.537Z,19.76
2022-09-02T22:14:08.974Z,19.71
2022-09-02T22:16:45.979Z,19.69
2022-09-02T23:07:13.864Z,18.66
2022-09-02T23:24:09.347Z,18.44
